KERO2: Robert S. Kerr Lock & Dam & Reservoir (L&D 15)

Data processed at Fri Dec 08 2017 23:03


All information presented herein is the property of the government of the United States of America and may be revised or deleted at any time without prior notice.
Dissemination of this information without the expressed written consent of the Public Affairs Office, Tulsa District U.S. Army Corps of Engineers is strictly prohibited.
These data are gathered electronically and, as presented, have not undergone any form of quality control. These data are not guaranteed to be valid or correct.
Go to home page.
Go to station list.

Upstream stations:

Downstream station:
Previous Day
Next Day
Current Day
    
SHEF ID:       KERO2     Robert S. Kerr Lock & Dam
STATION TYPE:  NAVIGATION LOCK
Normal Pool:  Bottom =   458.00, Top =   460.00

               PRECIP ELEVATION   STORAGE   TW-ELEV    INFLOW   RELEASE  AIR-TEMP  WIND-DIRWIND-SPEED REL-HUMID SOLAR-RAD   VOLTAGE  BAT-LOAD
                   in        ft     ac-ft        ft       cfs       cfs         F       deg       mph         %      W/m2      volt      volt
              Ccp-Rev   Ccp-Rev   Ccp-Rev   Ccp-Rev  Regi-Rev  Regi-Rev   Ccp-Rev   Ccp-Rev   Ccp-Rev   Ccp-Rev   Ccp-Rev   Ccp-Rev   Ccp-Rev
(US/Central)
12/06 00:00      0.00    459.89    520949    413.07      5484     20000     34.86    225.20      2.64     71.38      0.00     13.81     13.36
12/06 01:00      0.00    459.94    523104    412.92      7193     20000     34.20      1.20      0.88     71.02      0.00     13.82     13.36
12/06 02:00      0.00    459.86    519656    412.86      8731     20000     40.01    328.50      0.29     54.28      0.00     13.83     13.30
12/06 03:00      0.00    459.84    518794    412.73      7039     20000     32.65     19.40      1.93     73.21      0.00     13.84     13.36
12/06 04:00      0.00    459.83    518363    412.65      9348     20000     35.71    338.20      0.49     65.57      0.00     13.84     13.36
12/06 05:00      0.00    459.78    516208    412.54      8527     20000     33.08     12.40      1.15     86.20      0.00     13.84     13.36
12/06 06:00      0.00    459.78    516208    412.45      8527     20000     33.85     20.10      0.92     91.09      0.00     13.84     13.36
12/06 07:00      0.00    459.75    514915    412.36     15043     20000     32.20     19.60      1.69     83.16      0.00     13.84     13.30
12/06 08:00      0.00    459.73    514053    412.22     17043     20000     32.54    356.40      1.26     81.51      9.00     13.86     13.30
12/06 09:00      0.00    459.79    516639    411.80     13305     10000     35.17     16.50      1.04     81.33     91.00     13.84     13.36
12/06 10:00      0.00    459.88    520518    411.69     12695     10000     41.43     23.30      1.69     64.90    308.00     13.83     13.36
12/06 11:00      0.00    459.79    516639    411.48     11043     10000     43.21    241.40      7.16     47.14    491.00     13.82     13.36
12/06 12:00      0.00    459.78    516208    411.67     11043     10000     43.66    225.10      7.45     49.41    301.00     13.83     13.36
12/06 13:00      0.00    459.74    514484    411.72      9436     10000     46.63    213.00      6.32     44.83    428.00     13.81     13.48
12/06 14:00      0.00    459.80    517070    411.82      9567     10000     50.02    234.50      8.17     38.96    398.00     13.83     13.36
12/06 15:00      0.00    459.78    516208    411.89      9699     10000     51.57    216.10      6.20     36.94    399.00     13.81     13.48
12/06 16:00      0.00    459.78    516208    412.37      9745     10000     53.98    194.50      8.45     39.20    269.00     13.82     13.36
12/06 17:00      0.00    459.73    514053    413.60      1795     22400     51.78    271.20      9.77     32.06     76.00     13.81     13.36
12/06 18:00      0.00    459.64    510174    413.51      6925     22400     50.04    276.90      6.01     34.99      1.00     13.81     13.36
12/06 19:00      0.00    459.65    510605    413.50      8900     22400     47.84    287.90      4.28     38.05      0.00     13.82     13.36
12/06 20:00      0.00    459.66    511036    413.55      8949     22400     45.75    306.20      3.95     41.47      0.00     13.80     13.36
12/06 21:00      0.00    459.71    513191    413.42      9083     22400     45.73    295.10      5.63     45.43      0.00     13.80     13.30
12/06 22:00      0.00    459.65    510605    412.20      9217      6500     44.53    280.00      4.86     47.03      0.00     13.80     13.36
12/06 23:00      0.00    459.66    511036    411.87      5731         0     43.43    267.80      4.00     46.42      0.00     13.80     13.36